sensor_id;sensor_type;location;lat;lon;timestamp;P1;durP1;ratioP1;P2;durP2;ratioP2
23260;SDS011;11799;47.740;-3.390;2023-09-19T00:02:16;6.30;;;1.95;;
23260;SDS011;11799;47.740;-3.390;2023-09-19T00:04:44;8.20;;;2.22;;
23260;SDS011;11799;47.740;-3.390;2023-09-19T00:07:10;9.95;;;2.42;;
23260;SDS011;11799;47.740;-3.390;2023-09-19T00:09:35;7.65;;;1.85;;
23260;SDS011;11799;47.740;-3.390;2023-09-19T00:12:05;11.60;;;2.17;;
23260;SDS011;11799;47.740;-3.390;2023-09-19T00:14:31;8.23;;;1.90;;
23260;SDS011;11799;47.740;-3.390;2023-09-19T00:17:04;6.60;;;2.05;;
23260;SDS011;11799;47.740;-3.390;2023-09-19T00:19:36;6.95;;;1.85;;
23260;SDS011;11799;47.740;-3.390;2023-09-19T00:22:08;17.13;;;2.50;;
23260;SDS011;11799;47.740;-3.390;2023-09-19T00:24:33;8.70;;;1.98;;
23260;SDS011;11799;47.740;-3.390;2023-09-19T00:26:59;8.32;;;1.92;;
23260;SDS011;11799;47.740;-3.390;2023-09-19T00:29:25;10.98;;;1.95;;
23260;SDS011;11799;47.740;-3.390;2023-09-19T00:31:54;7.55;;;2.00;;
23260;SDS011;11799;47.740;-3.390;2023-09-19T00:34:22;12.48;;;2.20;;
23260;SDS011;11799;47.740;-3.390;2023-09-19T00:36:47;10.48;;;1.98;;
23260;SDS011;11799;47.740;-3.390;2023-09-19T00:39:13;10.68;;;2.00;;
23260;SDS011;11799;47.740;-3.390;2023-09-19T00:41:39;9.10;;;1.98;;
23260;SDS011;11799;47.740;-3.390;2023-09-19T00:44:06;8.20;;;2.08;;
23260;SDS011;11799;47.740;-3.390;2023-09-19T00:46:31;15.50;;;2.92;;
23260;SDS011;11799;47.740;-3.390;2023-09-19T00:48:57;11.88;;;2.28;;
23260;SDS011;11799;47.740;-3.390;2023-09-19T00:51:24;14.95;;;2.67;;
23260;SDS011;11799;47.740;-3.390;2023-09-19T00:53:53;12.77;;;2.78;;
23260;SDS011;11799;47.740;-3.390;2023-09-19T00:56:19;12.23;;;2.30;;
23260;SDS011;11799;47.740;-3.390;2023-09-19T00:58:46;15.43;;;2.63;;
23260;SDS011;11799;47.740;-3.390;2023-09-19T01:01:15;12.35;;;2.33;;
23260;SDS011;11799;47.740;-3.390;2023-09-19T01:03:42;10.85;;;2.08;;
23260;SDS011;11799;47.740;-3.390;2023-09-19T01:06:08;14.75;;;3.10;;
23260;SDS011;11799;47.740;-3.390;2023-09-19T01:08:34;10.95;;;1.90;;
23260;SDS011;11799;47.740;-3.390;2023-09-19T01:11:20;8.23;;;2.10;;
23260;SDS011;11799;47.740;-3.390;2023-09-19T01:14:29;10.60;;;1.90;;
23260;SDS011;11799;47.740;-3.390;2023-09-19T01:17:08;4.72;;;1.65;;
23260;SDS011;11799;47.740;-3.390;2023-09-19T01:19:59;13.77;;;2.08;;
23260;SDS011;11799;47.740;-3.390;2023-09-19T01:22:35;9.15;;;2.05;;
23260;SDS011;11799;47.740;-3.390;2023-09-19T01:30:56;13.30;;;2.63;;
23260;SDS011;11799;47.740;-3.390;2023-09-19T01:33:26;12.52;;;2.70;;
23260;SDS011;11799;47.740;-3.390;2023-09-19T01:35:52;7.20;;;2.00;;
23260;SDS011;11799;47.740;-3.390;2023-09-19T01:38:23;15.63;;;2.15;;
23260;SDS011;11799;47.740;-3.390;2023-09-19T01:41:26;9.85;;;2.50;;
23260;SDS011;11799;47.740;-3.390;2023-09-19T01:43:47;11.48;;;2.45;;
23260;SDS011;11799;47.740;-3.390;2023-09-19T01:46:18;13.18;;;2.33;;
23260;SDS011;11799;47.740;-3.390;2023-09-19T01:49:18;15.48;;;2.35;;
23260;SDS011;11799;47.740;-3.390;2023-09-19T01:52:13;7.65;;;1.83;;
23260;SDS011;11799;47.740;-3.390;2023-09-19T01:54:58;7.30;;;2.22;;
23260;SDS011;11799;47.740;-3.390;2023-09-19T01:57:40;19.25;;;3.08;;
23260;SDS011;11799;47.740;-3.390;2023-09-19T02:00:14;19.92;;;4.03;;
23260;SDS011;11799;47.740;-3.390;2023-09-19T02:02:43;17.35;;;2.75;;
23260;SDS011;11799;47.740;-3.390;2023-09-19T02:05:12;11.27;;;2.67;;
23260;SDS011;11799;47.740;-3.390;2023-09-19T02:07:39;20.10;;;2.70;;
23260;SDS011;11799;47.740;-3.390;2023-09-19T02:10:06;15.95;;;3.28;;
23260;SDS011;11799;47.740;-3.390;2023-09-19T02:12:32;13.30;;;2.92;;
23260;SDS011;11799;47.740;-3.390;2023-09-19T02:15:02;13.35;;;2.80;;
23260;SDS011;11799;47.740;-3.390;2023-09-19T02:17:28;8.80;;;2.80;;
23260;SDS011;11799;47.740;-3.390;2023-09-19T02:19:56;16.60;;;2.80;;
23260;SDS011;11799;47.740;-3.390;2023-09-19T02:22:21;12.85;;;2.80;;
23260;SDS011;11799;47.740;-3.390;2023-09-19T02:24:48;12.13;;;2.60;;
23260;SDS011;11799;47.740;-3.390;2023-09-19T02:27:13;12.98;;;2.33;;
23260;SDS011;11799;47.740;-3.390;2023-09-19T02:29:41;11.95;;;2.20;;
23260;SDS011;11799;47.740;-3.390;2023-09-19T02:32:08;10.98;;;2.90;;
23260;SDS011;11799;47.740;-3.390;2023-09-19T02:34:34;9.80;;;2.67;;
23260;SDS011;11799;47.740;-3.390;2023-09-19T02:37:04;22.98;;;2.75;;
23260;SDS011;11799;47.740;-3.390;2023-09-19T02:39:30;14.10;;;2.83;;
23260;SDS011;11799;47.740;-3.390;2023-09-19T02:41:57;14.18;;;2.50;;
23260;SDS011;11799;47.740;-3.390;2023-09-19T02:44:22;12.52;;;2.40;;
23260;SDS011;11799;47.740;-3.390;2023-09-19T02:46:49;12.73;;;2.53;;
23260;SDS011;11799;47.740;-3.390;2023-09-19T02:49:15;8.60;;;2.78;;
23260;SDS011;11799;47.740;-3.390;2023-09-19T02:51:43;11.80;;;2.45;;
23260;SDS011;11799;47.740;-3.390;2023-09-19T02:54:12;11.73;;;2.40;;
23260;SDS011;11799;47.740;-3.390;2023-09-19T02:56:38;13.55;;;2.45;;
23260;SDS011;11799;47.740;-3.390;2023-09-19T02:59:04;17.35;;;2.83;;
23260;SDS011;11799;47.740;-3.390;2023-09-19T03:01:31;10.80;;;2.35;;
23260;SDS011;11799;47.740;-3.390;2023-09-19T03:03:57;9.48;;;2.42;;
23260;SDS011;11799;47.740;-3.390;2023-09-19T03:06:23;13.88;;;2.78;;
23260;SDS011;11799;47.740;-3.390;2023-09-19T03:08:49;17.77;;;2.88;;
23260;SDS011;11799;47.740;-3.390;2023-09-19T03:11:18;11.80;;;2.67;;
23260;SDS011;11799;47.740;-3.390;2023-09-19T03:16:21;12.20;;;2.70;;
23260;SDS011;11799;47.740;-3.390;2023-09-19T03:18:53;19.73;;;3.05;;
23260;SDS011;11799;47.740;-3.390;2023-09-19T03:21:18;19.83;;;3.00;;
23260;SDS011;11799;47.740;-3.390;2023-09-19T03:23:45;7.30;;;2.65;;
23260;SDS011;11799;47.740;-3.390;2023-09-19T03:26:11;18.45;;;2.90;;
23260;SDS011;11799;47.740;-3.390;2023-09-19T03:28:38;16.50;;;2.80;;
23260;SDS011;11799;47.740;-3.390;2023-09-19T03:31:04;13.25;;;2.80;;
23260;SDS011;11799;47.740;-3.390;2023-09-19T03:33:33;13.98;;;2.88;;
23260;SDS011;11799;47.740;-3.390;2023-09-19T03:36:00;20.52;;;2.75;;
23260;SDS011;11799;47.740;-3.390;2023-09-19T03:40:56;14.05;;;2.75;;
23260;SDS011;11799;47.740;-3.390;2023-09-19T03:43:21;12.20;;;2.85;;
23260;SDS011;11799;47.740;-3.390;2023-09-19T03:45:47;9.00;;;2.67;;
23260;SDS011;11799;47.740;-3.390;2023-09-19T03:48:14;13.55;;;2.97;;
23260;SDS011;11799;47.740;-3.390;2023-09-19T03:50:40;15.82;;;3.28;;
23260;SDS011;11799;47.740;-3.390;2023-09-19T03:53:05;11.95;;;2.60;;
23260;SDS011;11799;47.740;-3.390;2023-09-19T03:55:32;9.32;;;2.40;;
23260;SDS011;11799;47.740;-3.390;2023-09-19T03:58:01;11.18;;;2.70;;
23260;SDS011;11799;47.740;-3.390;2023-09-19T04:00:27;9.65;;;2.60;;
23260;SDS011;11799;47.740;-3.390;2023-09-19T04:02:54;15.07;;;2.90;;
23260;SDS011;11799;47.740;-3.390;2023-09-19T04:05:22;14.30;;;3.00;;
23260;SDS011;11799;47.740;-3.390;2023-09-19T04:07:48;12.65;;;2.45;;
23260;SDS011;11799;47.740;-3.390;2023-09-19T04:10:14;16.08;;;2.65;;
23260;SDS011;11799;47.740;-3.390;2023-09-19T04:12:40;12.27;;;2.33;;
23260;SDS011;11799;47.740;-3.390;2023-09-19T04:15:06;9.57;;;2.50;;
23260;SDS011;11799;47.740;-3.390;2023-09-19T04:17:32;12.63;;;3.03;;
23260;SDS011;11799;47.740;-3.390;2023-09-19T04:19:59;10.57;;;2.67;;
23260;SDS011;11799;47.740;-3.390;2023-09-19T04:22:25;20.02;;;3.22;;
23260;SDS011;11799;47.740;-3.390;2023-09-19T04:24:50;11.95;;;2.42;;
23260;SDS011;11799;47.740;-3.390;2023-09-19T04:27:16;9.23;;;2.17;;
23260;SDS011;11799;47.740;-3.390;2023-09-19T04:29:42;6.18;;;2.88;;
23260;SDS011;11799;47.740;-3.390;2023-09-19T04:32:08;8.73;;;2.40;;
23260;SDS011;11799;47.740;-3.390;2023-09-19T04:34:35;14.55;;;2.70;;
23260;SDS011;11799;47.740;-3.390;2023-09-19T04:37:00;13.65;;;2.63;;
23260;SDS011;11799;47.740;-3.390;2023-09-19T04:39:27;13.82;;;3.00;;
23260;SDS011;11799;47.740;-3.390;2023-09-19T04:41:53;12.93;;;3.40;;
23260;SDS011;11799;47.740;-3.390;2023-09-19T04:44:20;9.07;;;2.63;;
23260;SDS011;11799;47.740;-3.390;2023-09-19T04:46:46;15.10;;;3.15;;
23260;SDS011;11799;47.740;-3.390;2023-09-19T04:49:12;10.00;;;2.30;;
23260;SDS011;11799;47.740;-3.390;2023-09-19T04:51:38;11.50;;;2.80;;
23260;SDS011;11799;47.740;-3.390;2023-09-19T04:54:05;15.00;;;2.72;;
23260;SDS011;11799;47.740;-3.390;2023-09-19T04:56:32;8.07;;;2.40;;
23260;SDS011;11799;47.740;-3.390;2023-09-19T04:58:58;13.52;;;3.53;;
23260;SDS011;11799;47.740;-3.390;2023-09-19T05:01:25;14.38;;;2.85;;
23260;SDS011;11799;47.740;-3.390;2023-09-19T05:04:03;12.30;;;2.25;;
23260;SDS011;11799;47.740;-3.390;2023-09-19T05:06:30;11.27;;;2.92;;
23260;SDS011;11799;47.740;-3.390;2023-09-19T05:08:55;13.77;;;2.97;;
23260;SDS011;11799;47.740;-3.390;2023-09-19T05:11:21;11.57;;;2.47;;
23260;SDS011;11799;47.740;-3.390;2023-09-19T05:13:48;12.10;;;2.65;;
23260;SDS011;11799;47.740;-3.390;2023-09-19T05:16:15;17.23;;;2.88;;
23260;SDS011;11799;47.740;-3.390;2023-09-19T05:18:41;7.50;;;2.50;;
23260;SDS011;11799;47.740;-3.390;2023-09-19T05:21:07;11.48;;;2.45;;
23260;SDS011;11799;47.740;-3.390;2023-09-19T05:23:33;10.18;;;2.95;;
23260;SDS011;11799;47.740;-3.390;2023-09-19T05:25:58;17.23;;;2.67;;
23260;SDS011;11799;47.740;-3.390;2023-09-19T05:28:25;15.82;;;3.30;;
23260;SDS011;11799;47.740;-3.390;2023-09-19T05:30:52;7.93;;;2.00;;
23260;SDS011;11799;47.740;-3.390;2023-09-19T05:33:18;8.07;;;1.73;;
23260;SDS011;11799;47.740;-3.390;2023-09-19T05:35:45;7.43;;;2.25;;
23260;SDS011;11799;47.740;-3.390;2023-09-19T05:38:12;9.07;;;2.60;;
23260;SDS011;11799;47.740;-3.390;2023-09-19T05:40:39;11.55;;;2.80;;
23260;SDS011;11799;47.740;-3.390;2023-09-19T05:43:10;14.90;;;2.80;;
23260;SDS011;11799;47.740;-3.390;2023-09-19T05:45:35;9.10;;;2.20;;
23260;SDS011;11799;47.740;-3.390;2023-09-19T05:48:08;13.60;;;2.38;;
23260;SDS011;11799;47.740;-3.390;2023-09-19T05:50:36;8.15;;;2.13;;
23260;SDS011;11799;47.740;-3.390;2023-09-19T05:53:02;13.68;;;2.53;;
23260;SDS011;11799;47.740;-3.390;2023-09-19T05:55:29;9.48;;;2.17;;
23260;SDS011;11799;47.740;-3.390;2023-09-19T05:57:55;13.30;;;2.67;;
23260;SDS011;11799;47.740;-3.390;2023-09-19T06:00:20;14.13;;;3.10;;
23260;SDS011;11799;47.740;-3.390;2023-09-19T06:02:51;9.88;;;2.40;;
23260;SDS011;11799;47.740;-3.390;2023-09-19T06:05:20;10.75;;;1.95;;
23260;SDS011;11799;47.740;-3.390;2023-09-19T06:07:47;7.30;;;2.15;;
23260;SDS011;11799;47.740;-3.390;2023-09-19T06:10:13;9.52;;;2.17;;
23260;SDS011;11799;47.740;-3.390;2023-09-19T06:12:40;8.32;;;2.53;;
23260;SDS011;11799;47.740;-3.390;2023-09-19T06:15:09;12.40;;;2.90;;
23260;SDS011;11799;47.740;-3.390;2023-09-19T06:17:40;9.50;;;2.25;;
23260;SDS011;11799;47.740;-3.390;2023-09-19T06:20:07;8.77;;;1.98;;
23260;SDS011;11799;47.740;-3.390;2023-09-19T06:22:38;8.68;;;1.90;;
23260;SDS011;11799;47.740;-3.390;2023-09-19T06:25:04;12.82;;;2.40;;
23260;SDS011;11799;47.740;-3.390;2023-09-19T06:27:30;7.15;;;2.00;;
23260;SDS011;11799;47.740;-3.390;2023-09-19T06:29:56;9.60;;;2.40;;
23260;SDS011;11799;47.740;-3.390;2023-09-19T06:32:26;12.45;;;2.15;;
23260;SDS011;11799;47.740;-3.390;2023-09-19T06:34:52;9.93;;;2.13;;
23260;SDS011;11799;47.740;-3.390;2023-09-19T06:37:26;7.13;;;2.50;;
23260;SDS011;11799;47.740;-3.390;2023-09-19T06:39:53;11.75;;;2.45;;
23260;SDS011;11799;47.740;-3.390;2023-09-19T06:42:18;11.88;;;2.40;;
23260;SDS011;11799;47.740;-3.390;2023-09-19T06:44:44;10.07;;;2.58;;
23260;SDS011;11799;47.740;-3.390;2023-09-19T06:47:09;10.68;;;2.50;;
23260;SDS011;11799;47.740;-3.390;2023-09-19T06:49:36;12.73;;;2.78;;
23260;SDS011;11799;47.740;-3.390;2023-09-19T06:52:01;12.13;;;2.70;;
23260;SDS011;11799;47.740;-3.390;2023-09-19T06:54:28;7.78;;;2.47;;
23260;SDS011;11799;47.740;-3.390;2023-09-19T06:56:59;12.80;;;2.75;;
23260;SDS011;11799;47.740;-3.390;2023-09-19T06:59:25;11.05;;;2.40;;
23260;SDS011;11799;47.740;-3.390;2023-09-19T07:01:50;9.20;;;2.50;;
23260;SDS011;11799;47.740;-3.390;2023-09-19T07:04:16;11.82;;;2.42;;
23260;SDS011;11799;47.740;-3.390;2023-09-19T07:06:44;12.13;;;2.50;;
23260;SDS011;11799;47.740;-3.390;2023-09-19T07:09:11;13.57;;;2.80;;
23260;SDS011;11799;47.740;-3.390;2023-09-19T07:11:37;11.88;;;2.70;;
23260;SDS011;11799;47.740;-3.390;2023-09-19T07:14:03;8.25;;;2.75;;
23260;SDS011;11799;47.740;-3.390;2023-09-19T07:16:28;12.52;;;3.10;;
23260;SDS011;11799;47.740;-3.390;2023-09-19T07:18:54;12.15;;;2.60;;
23260;SDS011;11799;47.740;-3.390;2023-09-19T07:21:22;12.48;;;2.28;;
23260;SDS011;11799;47.740;-3.390;2023-09-19T07:23:48;13.88;;;2.72;;
23260;SDS011;11799;47.740;-3.390;2023-09-19T07:26:15;11.80;;;2.40;;
23260;SDS011;11799;47.740;-3.390;2023-09-19T07:28:41;12.80;;;2.60;;
23260;SDS011;11799;47.740;-3.390;2023-09-19T07:31:07;9.85;;;2.70;;
23260;SDS011;11799;47.740;-3.390;2023-09-19T07:33:35;17.45;;;4.32;;
23260;SDS011;11799;47.740;-3.390;2023-09-19T07:36:01;10.32;;;2.53;;
23260;SDS011;11799;47.740;-3.390;2023-09-19T07:38:27;8.90;;;2.50;;
23260;SDS011;11799;47.740;-3.390;2023-09-19T07:40:59;13.95;;;3.00;;
23260;SDS011;11799;47.740;-3.390;2023-09-19T07:43:25;10.32;;;2.60;;
23260;SDS011;11799;47.740;-3.390;2023-09-19T07:45:52;10.07;;;2.33;;
23260;SDS011;11799;47.740;-3.390;2023-09-19T07:48:17;10.38;;;2.95;;
23260;SDS011;11799;47.740;-3.390;2023-09-19T07:50:43;8.52;;;2.30;;
23260;SDS011;11799;47.740;-3.390;2023-09-19T07:53:09;13.43;;;2.58;;
23260;SDS011;11799;47.740;-3.390;2023-09-19T07:55:34;14.00;;;2.72;;
23260;SDS011;11799;47.740;-3.390;2023-09-19T07:58:00;14.35;;;2.92;;
23260;SDS011;11799;47.740;-3.390;2023-09-19T08:00:26;8.55;;;2.30;;
23260;SDS011;11799;47.740;-3.390;2023-09-19T08:02:51;10.98;;;2.50;;
23260;SDS011;11799;47.740;-3.390;2023-09-19T08:05:17;6.22;;;1.95;;
23260;SDS011;11799;47.740;-3.390;2023-09-19T08:07:44;12.00;;;2.53;;
23260;SDS011;11799;47.740;-3.390;2023-09-19T08:10:13;7.40;;;2.45;;
23260;SDS011;11799;47.740;-3.390;2023-09-19T08:12:41;13.85;;;2.65;;
23260;SDS011;11799;47.740;-3.390;2023-09-19T08:15:18;12.23;;;2.55;;
23260;SDS011;11799;47.740;-3.390;2023-09-19T08:17:45;11.88;;;2.45;;
23260;SDS011;11799;47.740;-3.390;2023-09-19T08:20:11;7.25;;;1.80;;
23260;SDS011;11799;47.740;-3.390;2023-09-19T08:22:47;13.52;;;2.65;;
23260;SDS011;11799;47.740;-3.390;2023-09-19T08:25:15;9.02;;;2.70;;
23260;SDS011;11799;47.740;-3.390;2023-09-19T08:27:44;9.80;;;2.55;;
23260;SDS011;11799;47.740;-3.390;2023-09-19T08:30:14;7.32;;;2.15;;
23260;SDS011;11799;47.740;-3.390;2023-09-19T08:32:45;10.40;;;2.13;;
23260;SDS011;11799;47.740;-3.390;2023-09-19T08:35:14;11.13;;;2.47;;
23260;SDS011;11799;47.740;-3.390;2023-09-19T08:37:39;6.70;;;1.98;;
23260;SDS011;11799;47.740;-3.390;2023-09-19T08:40:05;9.27;;;2.83;;
23260;SDS011;11799;47.740;-3.390;2023-09-19T08:42:50;10.63;;;2.40;;
23260;SDS011;11799;47.740;-3.390;2023-09-19T08:45:19;11.02;;;2.67;;
23260;SDS011;11799;47.740;-3.390;2023-09-19T08:50:30;11.55;;;2.90;;
23260;SDS011;11799;47.740;-3.390;2023-09-19T08:52:56;9.65;;;2.85;;
23260;SDS011;11799;47.740;-3.390;2023-09-19T08:55:27;12.30;;;2.65;;
23260;SDS011;11799;47.740;-3.390;2023-09-19T08:58:01;10.05;;;2.70;;
23260;SDS011;11799;47.740;-3.390;2023-09-19T09:00:30;12.45;;;2.58;;
23260;SDS011;11799;47.740;-3.390;2023-09-19T09:02:56;10.30;;;2.95;;
23260;SDS011;11799;47.740;-3.390;2023-09-19T09:05:23;10.98;;;2.65;;
23260;SDS011;11799;47.740;-3.390;2023-09-19T09:07:50;11.43;;;2.40;;
23260;SDS011;11799;47.740;-3.390;2023-09-19T09:10:21;10.88;;;2.50;;
23260;SDS011;11799;47.740;-3.390;2023-09-19T09:12:51;10.20;;;2.55;;
23260;SDS011;11799;47.740;-3.390;2023-09-19T09:15:20;10.82;;;2.55;;
23260;SDS011;11799;47.740;-3.390;2023-09-19T09:17:47;11.02;;;2.50;;
23260;SDS011;11799;47.740;-3.390;2023-09-19T09:20:18;9.38;;;2.78;;
23260;SDS011;11799;47.740;-3.390;2023-09-19T09:22:50;10.35;;;2.45;;
23260;SDS011;11799;47.740;-3.390;2023-09-19T09:25:18;8.68;;;3.08;;
23260;SDS011;11799;47.740;-3.390;2023-09-19T09:27:45;12.98;;;2.70;;
23260;SDS011;11799;47.740;-3.390;2023-09-19T09:30:36;10.98;;;2.92;;
23260;SDS011;11799;47.740;-3.390;2023-09-19T09:33:08;11.50;;;2.90;;
23260;SDS011;11799;47.740;-3.390;2023-09-19T09:35:36;10.20;;;2.85;;
23260;SDS011;11799;47.740;-3.390;2023-09-19T09:38:06;10.48;;;2.75;;
23260;SDS011;11799;47.740;-3.390;2023-09-19T09:40:46;10.48;;;2.63;;
23260;SDS011;11799;47.740;-3.390;2023-09-19T09:43:36;10.93;;;2.72;;
23260;SDS011;11799;47.740;-3.390;2023-09-19T09:46:18;11.88;;;2.38;;
23260;SDS011;11799;47.740;-3.390;2023-09-19T09:48:48;10.95;;;2.53;;
23260;SDS011;11799;47.740;-3.390;2023-09-19T09:52:00;8.35;;;2.20;;
23260;SDS011;11799;47.740;-3.390;2023-09-19T09:54:30;9.32;;;2.20;;
23260;SDS011;11799;47.740;-3.390;2023-09-19T09:57:05;14.23;;;3.35;;
23260;SDS011;11799;47.740;-3.390;2023-09-19T09:59:53;7.43;;;2.40;;
23260;SDS011;11799;47.740;-3.390;2023-09-19T10:02:27;11.10;;;2.78;;
23260;SDS011;11799;47.740;-3.390;2023-09-19T10:04:57;13.77;;;2.47;;
23260;SDS011;11799;47.740;-3.390;2023-09-19T10:07:40;14.77;;;3.05;;
23260;SDS011;11799;47.740;-3.390;2023-09-19T10:10:12;9.30;;;2.83;;
23260;SDS011;11799;47.740;-3.390;2023-09-19T10:12:45;9.25;;;2.17;;
23260;SDS011;11799;47.740;-3.390;2023-09-19T10:15:14;10.00;;;2.50;;
23260;SDS011;11799;47.740;-3.390;2023-09-19T10:17:44;10.73;;;2.42;;
23260;SDS011;11799;47.740;-3.390;2023-09-19T10:20:17;11.77;;;3.03;;
23260;SDS011;11799;47.740;-3.390;2023-09-19T10:23:06;16.88;;;3.00;;
23260;SDS011;11799;47.740;-3.390;2023-09-19T10:25:45;8.18;;;2.22;;
23260;SDS011;11799;47.740;-3.390;2023-09-19T10:28:13;11.48;;;2.85;;
23260;SDS011;11799;47.740;-3.390;2023-09-19T10:30:43;8.75;;;2.50;;
23260;SDS011;11799;47.740;-3.390;2023-09-19T10:33:12;12.73;;;2.78;;
23260;SDS011;11799;47.740;-3.390;2023-09-19T10:35:41;9.57;;;3.03;;
23260;SDS011;11799;47.740;-3.390;2023-09-19T10:38:10;8.80;;;2.42;;
23260;SDS011;11799;47.740;-3.390;2023-09-19T10:40:37;11.18;;;2.53;;
23260;SDS011;11799;47.740;-3.390;2023-09-19T10:43:11;11.52;;;2.60;;
23260;SDS011;11799;47.740;-3.390;2023-09-19T10:45:38;9.75;;;2.65;;
23260;SDS011;11799;47.740;-3.390;2023-09-19T10:48:05;11.52;;;2.83;;
23260;SDS011;11799;47.740;-3.390;2023-09-19T10:50:33;12.13;;;3.13;;
23260;SDS011;11799;47.740;-3.390;2023-09-19T10:53:07;7.25;;;2.58;;
23260;SDS011;11799;47.740;-3.390;2023-09-19T10:55:36;11.65;;;2.63;;
23260;SDS011;11799;47.740;-3.390;2023-09-19T10:58:02;8.65;;;2.65;;
23260;SDS011;11799;47.740;-3.390;2023-09-19T11:00:51;13.45;;;2.72;;
23260;SDS011;11799;47.740;-3.390;2023-09-19T11:03:25;6.53;;;2.40;;
23260;SDS011;11799;47.740;-3.390;2023-09-19T11:30:31;14.82;;;3.25;;
23260;SDS011;11799;47.740;-3.390;2023-09-19T11:33:20;11.63;;;3.42;;
23260;SDS011;11799;47.740;-3.390;2023-09-19T11:47:14;14.73;;;3.20;;
23260;SDS011;11799;47.740;-3.390;2023-09-19T11:49:17;14.18;;;3.10;;
23260;SDS011;11799;47.740;-3.390;2023-09-19T11:51:50;14.27;;;2.95;;
23260;SDS011;11799;47.740;-3.390;2023-09-19T11:54:16;12.93;;;3.30;;
23260;SDS011;11799;47.740;-3.390;2023-09-19T11:56:44;13.70;;;3.38;;
23260;SDS011;11799;47.740;-3.390;2023-09-19T11:59:11;12.98;;;3.25;;
23260;SDS011;11799;47.740;-3.390;2023-09-19T12:01:37;12.63;;;4.32;;
23260;SDS011;11799;47.740;-3.390;2023-09-19T12:04:08;13.82;;;3.67;;
23260;SDS011;11799;47.740;-3.390;2023-09-19T12:06:37;17.40;;;4.50;;
23260;SDS011;11799;47.740;-3.390;2023-09-19T12:09:07;15.15;;;4.57;;
23260;SDS011;11799;47.740;-3.390;2023-09-19T12:11:42;12.63;;;3.60;;
23260;SDS011;11799;47.740;-3.390;2023-09-19T12:14:09;16.15;;;4.10;;
23260;SDS011;11799;47.740;-3.390;2023-09-19T12:16:35;12.93;;;3.30;;
23260;SDS011;11799;47.740;-3.390;2023-09-19T12:19:17;14.10;;;3.50;;
23260;SDS011;11799;47.740;-3.390;2023-09-19T12:21:53;13.95;;;4.20;;
23260;SDS011;11799;47.740;-3.390;2023-09-19T12:24:23;10.48;;;3.80;;
23260;SDS011;11799;47.740;-3.390;2023-09-19T12:26:51;12.60;;;3.60;;
23260;SDS011;11799;47.740;-3.390;2023-09-19T12:29:18;17.50;;;4.32;;
23260;SDS011;11799;47.740;-3.390;2023-09-19T12:37:03;11.27;;;3.50;;
23260;SDS011;11799;47.740;-3.390;2023-09-19T12:39:40;9.77;;;3.70;;
23260;SDS011;11799;47.740;-3.390;2023-09-19T12:42:13;12.73;;;3.80;;
23260;SDS011;11799;47.740;-3.390;2023-09-19T12:44:44;16.25;;;4.82;;
23260;SDS011;11799;47.740;-3.390;2023-09-19T12:47:15;12.43;;;3.60;;
23260;SDS011;11799;47.740;-3.390;2023-09-19T12:52:42;17.98;;;4.25;;
23260;SDS011;11799;47.740;-3.390;2023-09-19T12:55:21;15.27;;;3.90;;
23260;SDS011;11799;47.740;-3.390;2023-09-19T13:00:39;16.05;;;4.20;;
23260;SDS011;11799;47.740;-3.390;2023-09-19T13:05:55;17.08;;;4.05;;
23260;SDS011;11799;47.740;-3.390;2023-09-19T13:08:35;14.00;;;3.85;;
23260;SDS011;11799;47.740;-3.390;2023-09-19T13:14:16;16.02;;;4.13;;
23260;SDS011;11799;47.740;-3.390;2023-09-19T13:25:09;13.18;;;3.80;;
23260;SDS011;11799;47.740;-3.390;2023-09-19T13:27:41;10.63;;;3.53;;
23260;SDS011;11799;47.740;-3.390;2023-09-19T13:30:07;19.40;;;4.45;;
23260;SDS011;11799;47.740;-3.390;2023-09-19T13:32:33;12.57;;;3.90;;
23260;SDS011;11799;47.740;-3.390;2023-09-19T13:34:59;11.38;;;3.50;;
23260;SDS011;11799;47.740;-3.390;2023-09-19T13:37:24;15.07;;;4.03;;
23260;SDS011;11799;47.740;-3.390;2023-09-19T13:39:51;13.98;;;3.42;;
23260;SDS011;11799;47.740;-3.390;2023-09-19T13:42:17;16.80;;;3.83;;
23260;SDS011;11799;47.740;-3.390;2023-09-19T13:44:43;17.60;;;3.60;;
23260;SDS011;11799;47.740;-3.390;2023-09-19T13:47:09;12.63;;;3.53;;
23260;SDS011;11799;47.740;-3.390;2023-09-19T13:49:35;11.70;;;2.95;;
23260;SDS011;11799;47.740;-3.390;2023-09-19T13:52:02;12.13;;;3.58;;
23260;SDS011;11799;47.740;-3.390;2023-09-19T13:54:32;11.13;;;3.42;;
23260;SDS011;11799;47.740;-3.390;2023-09-19T13:56:58;11.18;;;3.28;;
23260;SDS011;11799;47.740;-3.390;2023-09-19T13:59:23;14.52;;;3.35;;
23260;SDS011;11799;47.740;-3.390;2023-09-19T14:01:49;15.68;;;4.40;;
23260;SDS011;11799;47.740;-3.390;2023-09-19T14:04:15;10.30;;;3.47;;
23260;SDS011;11799;47.740;-3.390;2023-09-19T14:06:42;13.55;;;3.30;;
23260;SDS011;11799;47.740;-3.390;2023-09-19T14:09:08;10.93;;;3.17;;
23260;SDS011;11799;47.740;-3.390;2023-09-19T14:11:35;14.57;;;3.38;;
23260;SDS011;11799;47.740;-3.390;2023-09-19T14:14:01;9.27;;;3.10;;
23260;SDS011;11799;47.740;-3.390;2023-09-19T14:16:27;10.82;;;3.05;;
23260;SDS011;11799;47.740;-3.390;2023-09-19T14:18:56;12.88;;;3.15;;
23260;SDS011;11799;47.740;-3.390;2023-09-19T14:21:23;11.38;;;3.25;;
23260;SDS011;11799;47.740;-3.390;2023-09-19T14:23:49;11.30;;;3.05;;
23260;SDS011;11799;47.740;-3.390;2023-09-19T14:26:15;10.45;;;2.97;;
23260;SDS011;11799;47.740;-3.390;2023-09-19T14:28:43;9.77;;;2.90;;
23260;SDS011;11799;47.740;-3.390;2023-09-19T14:31:10;12.38;;;3.00;;
23260;SDS011;11799;47.740;-3.390;2023-09-19T14:33:36;10.90;;;3.10;;
23260;SDS011;11799;47.740;-3.390;2023-09-19T14:36:03;13.40;;;3.70;;
23260;SDS011;11799;47.740;-3.390;2023-09-19T14:38:32;9.10;;;2.85;;
23260;SDS011;11799;47.740;-3.390;2023-09-19T14:40:59;11.43;;;3.22;;
23260;SDS011;11799;47.740;-3.390;2023-09-19T14:43:26;13.98;;;2.85;;
23260;SDS011;11799;47.740;-3.390;2023-09-19T14:45:54;11.82;;;3.50;;
23260;SDS011;11799;47.740;-3.390;2023-09-19T14:48:19;14.32;;;3.80;;
23260;SDS011;11799;47.740;-3.390;2023-09-19T14:50:45;12.25;;;3.17;;
23260;SDS011;11799;47.740;-3.390;2023-09-19T14:53:13;12.43;;;3.28;;
23260;SDS011;11799;47.740;-3.390;2023-09-19T14:55:38;15.00;;;3.75;;
23260;SDS011;11799;47.740;-3.390;2023-09-19T14:58:06;11.10;;;3.33;;
23260;SDS011;11799;47.740;-3.390;2023-09-19T15:00:33;12.63;;;3.13;;
23260;SDS011;11799;47.740;-3.390;2023-09-19T15:02:59;9.93;;;3.38;;
23260;SDS011;11799;47.740;-3.390;2023-09-19T15:05:25;11.48;;;3.70;;
23260;SDS011;11799;47.740;-3.390;2023-09-19T15:07:50;8.80;;;3.50;;
23260;SDS011;11799;47.740;-3.390;2023-09-19T15:10:16;10.52;;;3.50;;
23260;SDS011;11799;47.740;-3.390;2023-09-19T15:12:43;9.80;;;2.75;;
23260;SDS011;11799;47.740;-3.390;2023-09-19T15:15:09;13.43;;;3.88;;
23260;SDS011;11799;47.740;-3.390;2023-09-19T15:17:37;10.93;;;2.75;;
23260;SDS011;11799;47.740;-3.390;2023-09-19T15:20:03;11.10;;;3.55;;
23260;SDS011;11799;47.740;-3.390;2023-09-19T15:22:32;14.63;;;3.55;;
23260;SDS011;11799;47.740;-3.390;2023-09-19T15:24:59;11.10;;;3.25;;
23260;SDS011;11799;47.740;-3.390;2023-09-19T15:27:27;12.95;;;3.08;;
23260;SDS011;11799;47.740;-3.390;2023-09-19T15:29:56;10.45;;;3.53;;
23260;SDS011;11799;47.740;-3.390;2023-09-19T15:32:23;9.27;;;3.40;;
23260;SDS011;11799;47.740;-3.390;2023-09-19T15:34:49;11.98;;;3.30;;
23260;SDS011;11799;47.740;-3.390;2023-09-19T15:37:15;13.43;;;3.38;;
23260;SDS011;11799;47.740;-3.390;2023-09-19T15:39:41;12.10;;;3.90;;
23260;SDS011;11799;47.740;-3.390;2023-09-19T15:42:07;11.10;;;3.13;;
23260;SDS011;11799;47.740;-3.390;2023-09-19T15:44:32;11.85;;;3.30;;
23260;SDS011;11799;47.740;-3.390;2023-09-19T15:46:59;10.07;;;3.50;;
23260;SDS011;11799;47.740;-3.390;2023-09-19T15:49:24;12.80;;;3.42;;
23260;SDS011;11799;47.740;-3.390;2023-09-19T15:51:50;14.23;;;3.78;;